sensor_id;sensor_type;location;lat;lon;timestamp;temperature;humidity
24468;DHT22;12634;50.852;5.676;2023-07-22T00:01:02;13.10;99.90
24468;DHT22;12634;50.852;5.676;2023-07-22T00:03:29;13.10;99.90
24468;DHT22;12634;50.852;5.676;2023-07-22T00:06:03;13.20;99.90
24468;DHT22;12634;50.852;5.676;2023-07-22T00:08:31;13.30;99.90
24468;DHT22;12634;50.852;5.676;2023-07-22T00:11:00;13.30;99.90
24468;DHT22;12634;50.852;5.676;2023-07-22T00:13:27;13.30;99.90
24468;DHT22;12634;50.852;5.676;2023-07-22T00:15:55;13.30;99.90
24468;DHT22;12634;50.852;5.676;2023-07-22T00:18:25;13.10;99.90
24468;DHT22;12634;50.852;5.676;2023-07-22T00:20:53;13.10;99.90
24468;DHT22;12634;50.852;5.676;2023-07-22T00:23:20;13.00;99.90
24468;DHT22;12634;50.852;5.676;2023-07-22T00:25:47;13.10;99.90
24468;DHT22;12634;50.852;5.676;2023-07-22T00:28:16;13.00;99.90
24468;DHT22;12634;50.852;5.676;2023-07-22T00:30:44;13.00;99.90
24468;DHT22;12634;50.852;5.676;2023-07-22T00:33:11;13.10;99.90
24468;DHT22;12634;50.852;5.676;2023-07-22T00:35:39;13.10;99.90
24468;DHT22;12634;50.852;5.676;2023-07-22T00:38:06;13.20;99.90
24468;DHT22;12634;50.852;5.676;2023-07-22T00:40:35;13.00;99.90
24468;DHT22;12634;50.852;5.676;2023-07-22T00:43:03;12.90;99.90
24468;DHT22;12634;50.852;5.676;2023-07-22T00:45:34;13.10;99.90
24468;DHT22;12634;50.852;5.676;2023-07-22T00:48:02;13.00;99.90
24468;DHT22;12634;50.852;5.676;2023-07-22T00:50:33;13.10;99.90
24468;DHT22;12634;50.852;5.676;2023-07-22T00:53:00;13.00;99.90
24468;DHT22;12634;50.852;5.676;2023-07-22T00:55:28;13.00;99.90
24468;DHT22;12634;50.852;5.676;2023-07-22T00:57:55;13.00;99.90
24468;DHT22;12634;50.852;5.676;2023-07-22T01:00:22;13.00;99.90
24468;DHT22;12634;50.852;5.676;2023-07-22T01:02:51;12.90;99.90
24468;DHT22;12634;50.852;5.676;2023-07-22T01:05:19;12.90;99.90
24468;DHT22;12634;50.852;5.676;2023-07-22T01:07:46;13.00;99.90
24468;DHT22;12634;50.852;5.676;2023-07-22T01:10:13;12.90;99.90
24468;DHT22;12634;50.852;5.676;2023-07-22T01:12:41;12.80;99.90
24468;DHT22;12634;50.852;5.676;2023-07-22T01:15:09;12.90;99.90
24468;DHT22;12634;50.852;5.676;2023-07-22T01:17:37;12.90;99.90
24468;DHT22;12634;50.852;5.676;2023-07-22T01:20:07;13.00;99.90
24468;DHT22;12634;50.852;5.676;2023-07-22T01:22:36;13.00;99.90
24468;DHT22;12634;50.852;5.676;2023-07-22T01:25:06;13.00;99.90
24468;DHT22;12634;50.852;5.676;2023-07-22T01:27:34;13.00;99.90
24468;DHT22;12634;50.852;5.676;2023-07-22T01:30:01;13.00;99.90
24468;DHT22;12634;50.852;5.676;2023-07-22T01:32:29;12.80;99.90
24468;DHT22;12634;50.852;5.676;2023-07-22T01:34:57;12.90;99.90
24468;DHT22;12634;50.852;5.676;2023-07-22T01:37:24;12.90;99.90
24468;DHT22;12634;50.852;5.676;2023-07-22T01:39:51;12.90;99.90
24468;DHT22;12634;50.852;5.676;2023-07-22T01:42:20;12.90;99.90
24468;DHT22;12634;50.852;5.676;2023-07-22T01:44:47;12.70;99.90
24468;DHT22;12634;50.852;5.676;2023-07-22T01:47:14;12.70;99.90
24468;DHT22;12634;50.852;5.676;2023-07-22T01:49:41;12.80;99.90
24468;DHT22;12634;50.852;5.676;2023-07-22T01:52:09;12.80;99.90
24468;DHT22;12634;50.852;5.676;2023-07-22T01:54:36;12.80;99.90
24468;DHT22;12634;50.852;5.676;2023-07-22T01:57:04;12.80;99.90
24468;DHT22;12634;50.852;5.676;2023-07-22T01:59:32;12.80;99.90
24468;DHT22;12634;50.852;5.676;2023-07-22T02:02:00;12.80;99.90
24468;DHT22;12634;50.852;5.676;2023-07-22T02:04:27;12.80;99.90
24468;DHT22;12634;50.852;5.676;2023-07-22T02:06:54;12.80;99.90
24468;DHT22;12634;50.852;5.676;2023-07-22T02:09:21;12.90;99.90
24468;DHT22;12634;50.852;5.676;2023-07-22T02:11:48;12.80;99.90
24468;DHT22;12634;50.852;5.676;2023-07-22T02:14:15;12.70;99.90
24468;DHT22;12634;50.852;5.676;2023-07-22T02:16:44;12.80;99.90
24468;DHT22;12634;50.852;5.676;2023-07-22T02:19:11;12.80;99.90
24468;DHT22;12634;50.852;5.676;2023-07-22T02:21:38;12.80;99.90
24468;DHT22;12634;50.852;5.676;2023-07-22T02:24:05;12.80;99.90
24468;DHT22;12634;50.852;5.676;2023-07-22T02:26:33;12.70;99.90
24468;DHT22;12634;50.852;5.676;2023-07-22T02:29:00;12.80;99.90
24468;DHT22;12634;50.852;5.676;2023-07-22T02:31:27;12.70;99.90
24468;DHT22;12634;50.852;5.676;2023-07-22T02:33:56;12.70;99.90
24468;DHT22;12634;50.852;5.676;2023-07-22T02:36:23;12.60;99.90
24468;DHT22;12634;50.852;5.676;2023-07-22T02:38:50;12.70;99.90
24468;DHT22;12634;50.852;5.676;2023-07-22T02:41:17;12.60;99.90
24468;DHT22;12634;50.852;5.676;2023-07-22T02:43:45;12.80;99.90
24468;DHT22;12634;50.852;5.676;2023-07-22T02:46:12;12.70;99.90
24468;DHT22;12634;50.852;5.676;2023-07-22T02:48:39;12.80;99.90
24468;DHT22;12634;50.852;5.676;2023-07-22T02:51:09;12.80;99.90
24468;DHT22;12634;50.852;5.676;2023-07-22T02:53:36;12.70;99.90
24468;DHT22;12634;50.852;5.676;2023-07-22T02:56:04;12.70;99.90
24468;DHT22;12634;50.852;5.676;2023-07-22T02:58:32;12.70;99.90
24468;DHT22;12634;50.852;5.676;2023-07-22T03:01:00;12.60;99.90
24468;DHT22;12634;50.852;5.676;2023-07-22T03:03:27;12.70;99.90
24468;DHT22;12634;50.852;5.676;2023-07-22T03:05:54;12.70;99.90
24468;DHT22;12634;50.852;5.676;2023-07-22T03:08:24;12.60;99.90
24468;DHT22;12634;50.852;5.676;2023-07-22T03:10:51;12.60;99.90
24468;DHT22;12634;50.852;5.676;2023-07-22T03:13:19;12.60;99.90
24468;DHT22;12634;50.852;5.676;2023-07-22T03:15:46;12.50;99.90
24468;DHT22;12634;50.852;5.676;2023-07-22T03:18:13;12.40;99.90
24468;DHT22;12634;50.852;5.676;2023-07-22T03:20:40;12.40;99.90
24468;DHT22;12634;50.852;5.676;2023-07-22T03:23:08;12.30;99.90
24468;DHT22;12634;50.852;5.676;2023-07-22T03:25:36;12.40;99.90
24468;DHT22;12634;50.852;5.676;2023-07-22T03:28:05;12.30;99.90
24468;DHT22;12634;50.852;5.676;2023-07-22T03:30:33;12.30;99.90
24468;DHT22;12634;50.852;5.676;2023-07-22T03:33:01;12.30;99.90
24468;DHT22;12634;50.852;5.676;2023-07-22T03:35:28;12.20;99.90
24468;DHT22;12634;50.852;5.676;2023-07-22T03:37:55;12.10;99.90
24468;DHT22;12634;50.852;5.676;2023-07-22T03:40:23;12.20;99.90
24468;DHT22;12634;50.852;5.676;2023-07-22T03:42:55;12.10;99.90
24468;DHT22;12634;50.852;5.676;2023-07-22T03:45:23;12.10;99.90
24468;DHT22;12634;50.852;5.676;2023-07-22T03:47:51;12.10;99.90
24468;DHT22;12634;50.852;5.676;2023-07-22T03:50:19;12.10;99.90
24468;DHT22;12634;50.852;5.676;2023-07-22T03:52:46;12.10;99.90
24468;DHT22;12634;50.852;5.676;2023-07-22T03:55:14;12.10;99.90
24468;DHT22;12634;50.852;5.676;2023-07-22T03:57:41;12.10;99.90
24468;DHT22;12634;50.852;5.676;2023-07-22T04:00:10;11.90;99.90
24468;DHT22;12634;50.852;5.676;2023-07-22T04:02:38;12.00;99.90
24468;DHT22;12634;50.852;5.676;2023-07-22T04:05:06;11.90;99.90
24468;DHT22;12634;50.852;5.676;2023-07-22T04:07:34;11.90;99.90
24468;DHT22;12634;50.852;5.676;2023-07-22T04:10:01;12.00;99.90
24468;DHT22;12634;50.852;5.676;2023-07-22T04:12:29;11.90;99.90
24468;DHT22;12634;50.852;5.676;2023-07-22T04:14:56;12.10;99.90
24468;DHT22;12634;50.852;5.676;2023-07-22T04:17:25;12.00;99.90
24468;DHT22;12634;50.852;5.676;2023-07-22T04:19:52;12.10;99.90
24468;DHT22;12634;50.852;5.676;2023-07-22T04:22:20;12.20;99.90
24468;DHT22;12634;50.852;5.676;2023-07-22T04:24:47;12.20;99.90
24468;DHT22;12634;50.852;5.676;2023-07-22T04:27:15;12.10;99.90
24468;DHT22;12634;50.852;5.676;2023-07-22T04:29:42;12.10;99.90
24468;DHT22;12634;50.852;5.676;2023-07-22T04:32:10;12.00;99.90
24468;DHT22;12634;50.852;5.676;2023-07-22T04:34:38;12.00;99.90
24468;DHT22;12634;50.852;5.676;2023-07-22T04:37:06;11.90;99.90
24468;DHT22;12634;50.852;5.676;2023-07-22T04:39:33;12.00;99.90
24468;DHT22;12634;50.852;5.676;2023-07-22T04:42:01;12.00;99.90
24468;DHT22;12634;50.852;5.676;2023-07-22T04:44:28;12.00;99.90
24468;DHT22;12634;50.852;5.676;2023-07-22T04:46:55;12.10;99.90
24468;DHT22;12634;50.852;5.676;2023-07-22T04:49:22;12.10;99.90
24468;DHT22;12634;50.852;5.676;2023-07-22T04:51:51;12.20;99.90
24468;DHT22;12634;50.852;5.676;2023-07-22T04:54:18;12.20;99.90
24468;DHT22;12634;50.852;5.676;2023-07-22T04:56:45;12.30;99.90
24468;DHT22;12634;50.852;5.676;2023-07-22T04:59:13;12.20;99.90
24468;DHT22;12634;50.852;5.676;2023-07-22T05:01:41;12.20;99.90
24468;DHT22;12634;50.852;5.676;2023-07-22T05:04:09;12.20;99.90
24468;DHT22;12634;50.852;5.676;2023-07-22T05:06:36;12.20;99.90
24468;DHT22;12634;50.852;5.676;2023-07-22T05:09:05;12.30;99.90
24468;DHT22;12634;50.852;5.676;2023-07-22T05:11:32;12.40;99.90
24468;DHT22;12634;50.852;5.676;2023-07-22T05:13:59;12.50;99.90
24468;DHT22;12634;50.852;5.676;2023-07-22T05:16:26;12.40;99.90
24468;DHT22;12634;50.852;5.676;2023-07-22T05:18:53;12.50;99.90
24468;DHT22;12634;50.852;5.676;2023-07-22T05:21:21;12.50;99.90
24468;DHT22;12634;50.852;5.676;2023-07-22T05:23:48;12.70;99.90
24468;DHT22;12634;50.852;5.676;2023-07-22T05:26:16;12.70;99.90
24468;DHT22;12634;50.852;5.676;2023-07-22T05:28:43;12.80;99.90
24468;DHT22;12634;50.852;5.676;2023-07-22T05:31:10;12.80;99.90
24468;DHT22;12634;50.852;5.676;2023-07-22T05:33:38;12.80;99.90
24468;DHT22;12634;50.852;5.676;2023-07-22T05:36:05;12.90;99.90
24468;DHT22;12634;50.852;5.676;2023-07-22T05:38:33;13.00;99.90
24468;DHT22;12634;50.852;5.676;2023-07-22T05:41:00;13.10;99.90
24468;DHT22;12634;50.852;5.676;2023-07-22T05:43:28;13.10;99.90
24468;DHT22;12634;50.852;5.676;2023-07-22T05:45:55;13.10;99.90
24468;DHT22;12634;50.852;5.676;2023-07-22T05:48:22;13.30;99.90
24468;DHT22;12634;50.852;5.676;2023-07-22T05:50:50;13.30;99.90
24468;DHT22;12634;50.852;5.676;2023-07-22T05:53:17;13.50;99.90
24468;DHT22;12634;50.852;5.676;2023-07-22T05:55:44;13.60;99.90
24468;DHT22;12634;50.852;5.676;2023-07-22T05:58:16;13.60;99.90
24468;DHT22;12634;50.852;5.676;2023-07-22T06:00:45;13.80;99.90
24468;DHT22;12634;50.852;5.676;2023-07-22T06:03:13;13.80;99.90
24468;DHT22;12634;50.852;5.676;2023-07-22T06:05:40;13.90;99.90
24468;DHT22;12634;50.852;5.676;2023-07-22T06:08:07;14.00;99.90
24468;DHT22;12634;50.852;5.676;2023-07-22T06:10:34;14.10;99.90
24468;DHT22;12634;50.852;5.676;2023-07-22T06:13:03;14.20;99.90
24468;DHT22;12634;50.852;5.676;2023-07-22T06:15:30;14.20;99.90
24468;DHT22;12634;50.852;5.676;2023-07-22T06:17:59;14.30;99.90
24468;DHT22;12634;50.852;5.676;2023-07-22T06:20:26;14.30;99.90
24468;DHT22;12634;50.852;5.676;2023-07-22T06:22:54;14.50;99.90
24468;DHT22;12634;50.852;5.676;2023-07-22T06:25:21;14.60;99.90
24468;DHT22;12634;50.852;5.676;2023-07-22T06:27:48;14.70;99.90
24468;DHT22;12634;50.852;5.676;2023-07-22T06:30:16;14.80;99.90
24468;DHT22;12634;50.852;5.676;2023-07-22T06:32:43;15.00;99.90
24468;DHT22;12634;50.852;5.676;2023-07-22T06:35:11;15.10;99.90
24468;DHT22;12634;50.852;5.676;2023-07-22T06:37:38;15.00;99.90
24468;DHT22;12634;50.852;5.676;2023-07-22T06:40:07;15.30;99.90
24468;DHT22;12634;50.852;5.676;2023-07-22T06:42:34;15.40;99.90
24468;DHT22;12634;50.852;5.676;2023-07-22T06:45:01;15.40;99.90
24468;DHT22;12634;50.852;5.676;2023-07-22T06:47:28;15.90;99.90
24468;DHT22;12634;50.852;5.676;2023-07-22T06:49:56;16.00;99.90
24468;DHT22;12634;50.852;5.676;2023-07-22T06:52:24;16.10;99.90
24468;DHT22;12634;50.852;5.676;2023-07-22T06:54:52;16.40;99.90
24468;DHT22;12634;50.852;5.676;2023-07-22T06:57:19;16.20;99.90
24468;DHT22;12634;50.852;5.676;2023-07-22T06:59:46;15.80;99.90
24468;DHT22;12634;50.852;5.676;2023-07-22T07:02:13;16.10;99.90
24468;DHT22;12634;50.852;5.676;2023-07-22T07:04:40;16.30;99.90
24468;DHT22;12634;50.852;5.676;2023-07-22T07:07:07;16.70;99.90
24468;DHT22;12634;50.852;5.676;2023-07-22T07:09:36;16.70;99.90
24468;DHT22;12634;50.852;5.676;2023-07-22T07:12:04;16.50;99.90
24468;DHT22;12634;50.852;5.676;2023-07-22T07:14:32;17.10;99.90
24468;DHT22;12634;50.852;5.676;2023-07-22T07:17:00;16.70;99.90
24468;DHT22;12634;50.852;5.676;2023-07-22T07:19:28;16.80;99.90
24468;DHT22;12634;50.852;5.676;2023-07-22T07:21:55;16.70;99.90
24468;DHT22;12634;50.852;5.676;2023-07-22T07:24:22;16.80;99.90
24468;DHT22;12634;50.852;5.676;2023-07-22T07:26:50;17.20;99.90
24468;DHT22;12634;50.852;5.676;2023-07-22T07:29:18;17.40;99.90
24468;DHT22;12634;50.852;5.676;2023-07-22T07:31:45;17.40;99.90
24468;DHT22;12634;50.852;5.676;2023-07-22T07:34:12;17.30;99.90
24468;DHT22;12634;50.852;5.676;2023-07-22T07:36:39;17.60;99.90
24468;DHT22;12634;50.852;5.676;2023-07-22T07:39:06;17.70;99.90
24468;DHT22;12634;50.852;5.676;2023-07-22T07:41:33;17.90;99.90
24468;DHT22;12634;50.852;5.676;2023-07-22T07:44:05;17.60;99.90
24468;DHT22;12634;50.852;5.676;2023-07-22T07:46:33;17.60;99.90
24468;DHT22;12634;50.852;5.676;2023-07-22T07:49:01;17.40;99.90
24468;DHT22;12634;50.852;5.676;2023-07-22T07:51:30;17.30;99.90
24468;DHT22;12634;50.852;5.676;2023-07-22T07:53:58;17.10;99.90
24468;DHT22;12634;50.852;5.676;2023-07-22T07:56:25;16.80;99.90
24468;DHT22;12634;50.852;5.676;2023-07-22T07:58:53;17.20;99.90
24468;DHT22;12634;50.852;5.676;2023-07-22T08:01:22;17.30;99.90
24468;DHT22;12634;50.852;5.676;2023-07-22T08:03:49;17.70;99.90
24468;DHT22;12634;50.852;5.676;2023-07-22T08:06:16;18.40;99.90
24468;DHT22;12634;50.852;5.676;2023-07-22T08:08:44;18.10;99.90
24468;DHT22;12634;50.852;5.676;2023-07-22T08:11:12;18.50;99.90
24468;DHT22;12634;50.852;5.676;2023-07-22T08:13:40;18.80;99.90
24468;DHT22;12634;50.852;5.676;2023-07-22T08:16:09;18.50;99.90
24468;DHT22;12634;50.852;5.676;2023-07-22T08:18:38;18.90;99.90
24468;DHT22;12634;50.852;5.676;2023-07-22T08:21:06;17.80;99.90
24468;DHT22;12634;50.852;5.676;2023-07-22T08:23:34;18.00;99.90
24468;DHT22;12634;50.852;5.676;2023-07-22T08:26:02;18.20;99.90
24468;DHT22;12634;50.852;5.676;2023-07-22T08:28:31;18.70;99.90
24468;DHT22;12634;50.852;5.676;2023-07-22T08:30:57;19.10;99.90
24468;DHT22;12634;50.852;5.676;2023-07-22T08:33:26;19.80;99.90
24468;DHT22;12634;50.852;5.676;2023-07-22T08:35:54;19.50;99.90
24468;DHT22;12634;50.852;5.676;2023-07-22T08:38:22;19.30;99.90
24468;DHT22;12634;50.852;5.676;2023-07-22T08:40:49;18.90;99.90
24468;DHT22;12634;50.852;5.676;2023-07-22T08:43:20;18.60;99.90
24468;DHT22;12634;50.852;5.676;2023-07-22T08:45:48;18.70;99.90
24468;DHT22;12634;50.852;5.676;2023-07-22T08:48:17;19.00;99.90
24468;DHT22;12634;50.852;5.676;2023-07-22T08:50:46;19.00;99.90
24468;DHT22;12634;50.852;5.676;2023-07-22T08:53:18;19.40;99.90
24468;DHT22;12634;50.852;5.676;2023-07-22T08:55:46;19.90;99.90
24468;DHT22;12634;50.852;5.676;2023-07-22T08:58:14;20.70;99.90
24468;DHT22;12634;50.852;5.676;2023-07-22T09:00:43;21.50;99.90
24468;DHT22;12634;50.852;5.676;2023-07-22T09:03:11;21.90;99.90
24468;DHT22;12634;50.852;5.676;2023-07-22T09:05:38;20.80;99.90
24468;DHT22;12634;50.852;5.676;2023-07-22T09:08:07;21.20;99.90
24468;DHT22;12634;50.852;5.676;2023-07-22T09:10:37;20.00;99.90
24468;DHT22;12634;50.852;5.676;2023-07-22T09:13:04;20.70;99.90
24468;DHT22;12634;50.852;5.676;2023-07-22T09:15:35;20.20;99.90
24468;DHT22;12634;50.852;5.676;2023-07-22T09:18:03;20.40;99.90
24468;DHT22;12634;50.852;5.676;2023-07-22T09:20:30;20.40;99.90
24468;DHT22;12634;50.852;5.676;2023-07-22T09:22:59;20.40;99.90
24468;DHT22;12634;50.852;5.676;2023-07-22T09:25:27;20.40;99.90
24468;DHT22;12634;50.852;5.676;2023-07-22T09:27:58;21.00;99.90
24468;DHT22;12634;50.852;5.676;2023-07-22T09:30:27;21.30;99.90
24468;DHT22;12634;50.852;5.676;2023-07-22T09:32:56;21.30;99.90
24468;DHT22;12634;50.852;5.676;2023-07-22T09:35:26;20.80;99.90
24468;DHT22;12634;50.852;5.676;2023-07-22T09:37:54;20.50;99.90
24468;DHT22;12634;50.852;5.676;2023-07-22T09:40:24;22.00;99.90
24468;DHT22;12634;50.852;5.676;2023-07-22T09:42:52;21.40;99.90
24468;DHT22;12634;50.852;5.676;2023-07-22T09:45:22;21.40;99.90
24468;DHT22;12634;50.852;5.676;2023-07-22T09:47:51;20.80;99.90
24468;DHT22;12634;50.852;5.676;2023-07-22T09:50:20;21.10;99.90
24468;DHT22;12634;50.852;5.676;2023-07-22T09:52:49;21.90;99.90
24468;DHT22;12634;50.852;5.676;2023-07-22T09:55:18;21.90;99.90
24468;DHT22;12634;50.852;5.676;2023-07-22T09:57:47;21.40;99.90
24468;DHT22;12634;50.852;5.676;2023-07-22T10:00:15;21.70;99.90
24468;DHT22;12634;50.852;5.676;2023-07-22T10:02:47;22.30;99.90
24468;DHT22;12634;50.852;5.676;2023-07-22T10:05:17;22.70;99.90
24468;DHT22;12634;50.852;5.676;2023-07-22T10:07:46;22.90;99.90
24468;DHT22;12634;50.852;5.676;2023-07-22T10:10:15;21.70;99.90
24468;DHT22;12634;50.852;5.676;2023-07-22T10:12:43;21.90;99.90
24468;DHT22;12634;50.852;5.676;2023-07-22T10:15:11;21.70;99.90
24468;DHT22;12634;50.852;5.676;2023-07-22T10:17:40;22.30;99.90
24468;DHT22;12634;50.852;5.676;2023-07-22T10:20:10;22.40;99.90
24468;DHT22;12634;50.852;5.676;2023-07-22T10:22:42;22.90;99.90
24468;DHT22;12634;50.852;5.676;2023-07-22T10:25:11;23.90;99.90
24468;DHT22;12634;50.852;5.676;2023-07-22T10:27:39;23.10;99.90
24468;DHT22;12634;50.852;5.676;2023-07-22T10:30:09;23.20;99.90
24468;DHT22;12634;50.852;5.676;2023-07-22T10:32:38;22.80;99.90
24468;DHT22;12634;50.852;5.676;2023-07-22T10:35:10;22.60;99.90
24468;DHT22;12634;50.852;5.676;2023-07-22T10:37:39;21.90;99.90
24468;DHT22;12634;50.852;5.676;2023-07-22T10:40:25;22.40;99.90
24468;DHT22;12634;50.852;5.676;2023-07-22T10:42:55;22.70;99.90
24468;DHT22;12634;50.852;5.676;2023-07-22T10:45:25;22.80;99.90
24468;DHT22;12634;50.852;5.676;2023-07-22T10:48:04;22.90;99.90
24468;DHT22;12634;50.852;5.676;2023-07-22T10:50:41;23.10;99.90
24468;DHT22;12634;50.852;5.676;2023-07-22T10:53:13;22.40;99.90
24468;DHT22;12634;50.852;5.676;2023-07-22T10:56:05;22.70;99.90
24468;DHT22;12634;50.852;5.676;2023-07-22T10:58:36;22.40;99.90
24468;DHT22;12634;50.852;5.676;2023-07-22T11:01:23;22.50;99.90
24468;DHT22;12634;50.852;5.676;2023-07-22T11:04:23;23.40;99.90
24468;DHT22;12634;50.852;5.676;2023-07-22T11:07:00;24.10;99.90
24468;DHT22;12634;50.852;5.676;2023-07-22T11:09:38;23.30;99.90
24468;DHT22;12634;50.852;5.676;2023-07-22T11:12:08;23.90;99.90
24468;DHT22;12634;50.852;5.676;2023-07-22T11:14:40;23.60;99.90
24468;DHT22;12634;50.852;5.676;2023-07-22T11:17:07;23.40;99.90
24468;DHT22;12634;50.852;5.676;2023-07-22T11:19:35;22.30;99.90
24468;DHT22;12634;50.852;5.676;2023-07-22T11:22:04;23.80;99.90
24468;DHT22;12634;50.852;5.676;2023-07-22T11:24:34;24.20;99.90
24468;DHT22;12634;50.852;5.676;2023-07-22T11:27:03;25.30;99.90
24468;DHT22;12634;50.852;5.676;2023-07-22T11:29:31;25.70;99.90
24468;DHT22;12634;50.852;5.676;2023-07-22T11:31:58;25.40;99.90
24468;DHT22;12634;50.852;5.676;2023-07-22T11:34:26;24.70;99.90
24468;DHT22;12634;50.852;5.676;2023-07-22T11:36:54;24.00;99.90
24468;DHT22;12634;50.852;5.676;2023-07-22T11:39:24;24.50;99.90
24468;DHT22;12634;50.852;5.676;2023-07-22T11:41:52;24.90;99.90
24468;DHT22;12634;50.852;5.676;2023-07-22T11:44:20;24.60;99.90
24468;DHT22;12634;50.852;5.676;2023-07-22T11:46:53;23.90;99.90
24468;DHT22;12634;50.852;5.676;2023-07-22T11:49:25;23.20;99.90
24468;DHT22;12634;50.852;5.676;2023-07-22T11:51:55;23.50;99.90
24468;DHT22;12634;50.852;5.676;2023-07-22T11:54:24;23.40;99.90
24468;DHT22;12634;50.852;5.676;2023-07-22T11:56:51;22.90;99.90
24468;DHT22;12634;50.852;5.676;2023-07-22T11:59:35;23.50;99.90
24468;DHT22;12634;50.852;5.676;2023-07-22T12:02:03;23.90;99.90
24468;DHT22;12634;50.852;5.676;2023-07-22T12:04:32;24.30;99.90
24468;DHT22;12634;50.852;5.676;2023-07-22T12:07:00;24.30;99.90
24468;DHT22;12634;50.852;5.676;2023-07-22T12:09:28;24.10;99.90
24468;DHT22;12634;50.852;5.676;2023-07-22T12:11:56;24.10;99.90
24468;DHT22;12634;50.852;5.676;2023-07-22T12:14:32;24.90;99.90
24468;DHT22;12634;50.852;5.676;2023-07-22T12:17:00;24.50;99.90
24468;DHT22;12634;50.852;5.676;2023-07-22T12:19:28;24.20;99.90
24468;DHT22;12634;50.852;5.676;2023-07-22T12:21:55;24.40;99.90
24468;DHT22;12634;50.852;5.676;2023-07-22T12:24:23;25.30;99.90
24468;DHT22;12634;50.852;5.676;2023-07-22T12:26:51;25.30;99.90
24468;DHT22;12634;50.852;5.676;2023-07-22T12:29:19;25.00;99.20
24468;DHT22;12634;50.852;5.676;2023-07-22T12:31:47;24.70;99.50
24468;DHT22;12634;50.852;5.676;2023-07-22T12:34:15;24.30;99.70
24468;DHT22;12634;50.852;5.676;2023-07-22T12:36:42;23.90;99.90
24468;DHT22;12634;50.852;5.676;2023-07-22T12:39:09;24.30;98.80
24468;DHT22;12634;50.852;5.676;2023-07-22T12:41:37;24.30;98.70
24468;DHT22;12634;50.852;5.676;2023-07-22T12:44:06;24.80;98.80
24468;DHT22;12634;50.852;5.676;2023-07-22T12:46:33;24.80;96.90
24468;DHT22;12634;50.852;5.676;2023-07-22T12:49:01;24.60;97.10
24468;DHT22;12634;50.852;5.676;2023-07-22T12:51:28;25.00;96.70
24468;DHT22;12634;50.852;5.676;2023-07-22T12:53:55;24.60;95.50
24468;DHT22;12634;50.852;5.676;2023-07-22T12:56:22;25.40;95.70
24468;DHT22;12634;50.852;5.676;2023-07-22T12:58:49;25.40;94.60
24468;DHT22;12634;50.852;5.676;2023-07-22T13:01:18;25.60;95.20
24468;DHT22;12634;50.852;5.676;2023-07-22T13:03:45;25.90;95.80
24468;DHT22;12634;50.852;5.676;2023-07-22T13:06:12;25.50;94.30
24468;DHT22;12634;50.852;5.676;2023-07-22T13:08:39;25.30;93.70
24468;DHT22;12634;50.852;5.676;2023-07-22T13:11:07;25.00;95.60
24468;DHT22;12634;50.852;5.676;2023-07-22T13:13:34;25.20;96.20
24468;DHT22;12634;50.852;5.676;2023-07-22T13:16:01;25.70;93.50
24468;DHT22;12634;50.852;5.676;2023-07-22T13:18:29;25.90;93.70
24468;DHT22;12634;50.852;5.676;2023-07-22T13:20:57;26.10;92.80
24468;DHT22;12634;50.852;5.676;2023-07-22T13:23:24;24.90;94.90
24468;DHT22;12634;50.852;5.676;2023-07-22T13:25:51;24.90;95.60
24468;DHT22;12634;50.852;5.676;2023-07-22T13:28:18;25.10;95.90
24468;DHT22;12634;50.852;5.676;2023-07-22T13:30:45;25.10;96.40
24468;DHT22;12634;50.852;5.676;2023-07-22T13:33:13;24.90;95.20
24468;DHT22;12634;50.852;5.676;2023-07-22T13:35:41;24.10;95.70
24468;DHT22;12634;50.852;5.676;2023-07-22T13:38:08;23.50;97.40
24468;DHT22;12634;50.852;5.676;2023-07-22T13:40:36;23.60;98.50
24468;DHT22;12634;50.852;5.676;2023-07-22T13:43:03;23.50;99.00
24468;DHT22;12634;50.852;5.676;2023-07-22T13:45:31;24.30;96.90
24468;DHT22;12634;50.852;5.676;2023-07-22T13:47:59;24.50;95.90
24468;DHT22;12634;50.852;5.676;2023-07-22T13:50:26;23.70;96.60
24468;DHT22;12634;50.852;5.676;2023-07-22T13:52:54;24.40;96.60
24468;DHT22;12634;50.852;5.676;2023-07-22T13:55:22;24.10;94.90
24468;DHT22;12634;50.852;5.676;2023-07-22T13:57:49;23.40;97.50
24468;DHT22;12634;50.852;5.676;2023-07-22T14:00:16;23.00;98.20
24468;DHT22;12634;50.852;5.676;2023-07-22T14:02:44;23.10;98.50
24468;DHT22;12634;50.852;5.676;2023-07-22T14:05:11;23.90;97.50
24468;DHT22;12634;50.852;5.676;2023-07-22T14:07:38;24.00;96.50
24468;DHT22;12634;50.852;5.676;2023-07-22T14:10:08;24.80;95.00
24468;DHT22;12634;50.852;5.676;2023-07-22T14:12:35;24.90;94.70
24468;DHT22;12634;50.852;5.676;2023-07-22T14:15:03;25.40;93.00
24468;DHT22;12634;50.852;5.676;2023-07-22T14:17:32;25.00;93.60
24468;DHT22;12634;50.852;5.676;2023-07-22T14:19:59;25.00;94.20
24468;DHT22;12634;50.852;5.676;2023-07-22T14:22:26;24.80;93.20
24468;DHT22;12634;50.852;5.676;2023-07-22T14:24:53;25.10;94.30
24468;DHT22;12634;50.852;5.676;2023-07-22T14:27:22;24.50;95.50
24468;DHT22;12634;50.852;5.676;2023-07-22T14:29:49;23.90;96.10
24468;DHT22;12634;50.852;5.676;2023-07-22T14:32:16;23.50;96.70
24468;DHT22;12634;50.852;5.676;2023-07-22T14:34:43;23.80;96.40
24468;DHT22;12634;50.852;5.676;2023-07-22T14:37:11;24.10;96.40
24468;DHT22;12634;50.852;5.676;2023-07-22T14:39:38;24.10;96.10
24468;DHT22;12634;50.852;5.676;2023-07-22T14:42:05;24.10;96.30
24468;DHT22;12634;50.852;5.676;2023-07-22T14:44:34;23.90;96.90
24468;DHT22;12634;50.852;5.676;2023-07-22T14:47:02;24.10;96.70
24468;DHT22;12634;50.852;5.676;2023-07-22T14:49:30;24.10;96.50
24468;DHT22;12634;50.852;5.676;2023-07-22T14:51:57;24.00;96.70
24468;DHT22;12634;50.852;5.676;2023-07-22T14:54:24;24.60;97.20
24468;DHT22;12634;50.852;5.676;2023-07-22T14:56:51;24.30;96.40
24468;DHT22;12634;50.852;5.676;2023-07-22T14:59:18;23.80;96.40
24468;DHT22;12634;50.852;5.676;2023-07-22T15:01:47;23.50;97.70
24468;DHT22;12634;50.852;5.676;2023-07-22T15:04:14;23.80;97.60
24468;DHT22;12634;50.852;5.676;2023-07-22T15:06:41;23.50;97.90
24468;DHT22;12634;50.852;5.676;2023-07-22T15:09:08;22.80;98.60
24468;DHT22;12634;50.852;5.676;2023-07-22T15:11:36;23.00;99.50
24468;DHT22;12634;50.852;5.676;2023-07-22T15:14:04;23.10;99.50
24468;DHT22;12634;50.852;5.676;2023-07-22T15:16:31;22.90;99.30
24468;DHT22;12634;50.852;5.676;2023-07-22T15:19:00;22.90;99.90
24468;DHT22;12634;50.852;5.676;2023-07-22T15:21:27;22.90;99.50
24468;DHT22;12634;50.852;5.676;2023-07-22T15:23:54;23.00;99.90
24468;DHT22;12634;50.852;5.676;2023-07-22T15:26:22;23.00;99.40
24468;DHT22;12634;50.852;5.676;2023-07-22T15:28:49;22.90;99.30
24468;DHT22;12634;50.852;5.676;2023-07-22T15:31:17;22.70;99.70
24468;DHT22;12634;50.852;5.676;2023-07-22T15:33:44;23.00;99.50
24468;DHT22;12634;50.852;5.676;2023-07-22T15:36:13;23.20;99.00